sensor_id;sensor_type;location;lat;lon;timestamp;P1;durP1;ratioP1;P2;durP2;ratioP2
54831;SDS011;40730;53.068;6.572;2023-03-23T00:02:25;32.67;;;19.52;;
54831;SDS011;40730;53.068;6.572;2023-03-23T00:04:57;30.73;;;20.33;;
54831;SDS011;40730;53.068;6.572;2023-03-23T00:07:25;26.80;;;17.33;;
54831;SDS011;40730;53.068;6.572;2023-03-23T00:09:53;21.55;;;14.82;;
54831;SDS011;40730;53.068;6.572;2023-03-23T00:12:23;20.77;;;13.88;;
54831;SDS011;40730;53.068;6.572;2023-03-23T00:15:06;18.90;;;14.23;;
54831;SDS011;40730;53.068;6.572;2023-03-23T00:17:33;19.42;;;14.43;;
54831;SDS011;40730;53.068;6.572;2023-03-23T00:20:00;23.85;;;15.77;;
54831;SDS011;40730;53.068;6.572;2023-03-23T00:22:29;18.73;;;13.98;;
54831;SDS011;40730;53.068;6.572;2023-03-23T00:24:55;20.70;;;12.82;;
54831;SDS011;40730;53.068;6.572;2023-03-23T00:27:21;19.23;;;13.85;;
54831;SDS011;40730;53.068;6.572;2023-03-23T00:29:48;22.25;;;14.55;;
54831;SDS011;40730;53.068;6.572;2023-03-23T00:32:18;25.05;;;15.85;;
54831;SDS011;40730;53.068;6.572;2023-03-23T00:34:45;23.92;;;15.18;;
54831;SDS011;40730;53.068;6.572;2023-03-23T00:37:13;17.15;;;13.77;;
54831;SDS011;40730;53.068;6.572;2023-03-23T00:39:41;23.13;;;14.35;;
54831;SDS011;40730;53.068;6.572;2023-03-23T00:42:09;21.40;;;13.52;;
54831;SDS011;40730;53.068;6.572;2023-03-23T00:44:35;23.00;;;14.90;;
54831;SDS011;40730;53.068;6.572;2023-03-23T00:47:01;22.50;;;15.50;;
54831;SDS011;40730;53.068;6.572;2023-03-23T00:49:28;27.13;;;16.65;;
54831;SDS011;40730;53.068;6.572;2023-03-23T00:51:57;21.85;;;16.35;;
54831;SDS011;40730;53.068;6.572;2023-03-23T00:54:24;26.85;;;16.73;;
54831;SDS011;40730;53.068;6.572;2023-03-23T00:56:50;31.50;;;18.75;;
54831;SDS011;40730;53.068;6.572;2023-03-23T00:59:16;35.67;;;19.65;;
54831;SDS011;40730;53.068;6.572;2023-03-23T01:01:42;25.02;;;16.65;;
54831;SDS011;40730;53.068;6.572;2023-03-23T01:04:08;29.23;;;18.83;;
54831;SDS011;40730;53.068;6.572;2023-03-23T01:06:37;35.22;;;19.70;;
54831;SDS011;40730;53.068;6.572;2023-03-23T01:09:06;31.30;;;19.33;;
54831;SDS011;40730;53.068;6.572;2023-03-23T01:11:32;28.35;;;18.10;;
54831;SDS011;40730;53.068;6.572;2023-03-23T01:13:58;18.45;;;11.95;;
54831;SDS011;40730;53.068;6.572;2023-03-23T01:16:25;16.48;;;11.52;;
54831;SDS011;40730;53.068;6.572;2023-03-23T01:18:51;18.05;;;12.50;;
54831;SDS011;40730;53.068;6.572;2023-03-23T01:21:18;14.57;;;10.98;;
54831;SDS011;40730;53.068;6.572;2023-03-23T01:23:44;15.50;;;10.55;;
54831;SDS011;40730;53.068;6.572;2023-03-23T01:26:21;16.08;;;11.10;;
54831;SDS011;40730;53.068;6.572;2023-03-23T01:28:48;22.58;;;12.02;;
54831;SDS011;40730;53.068;6.572;2023-03-23T01:31:15;16.17;;;10.60;;
54831;SDS011;40730;53.068;6.572;2023-03-23T01:33:43;16.40;;;10.25;;
54831;SDS011;40730;53.068;6.572;2023-03-23T01:36:14;17.60;;;10.15;;
54831;SDS011;40730;53.068;6.572;2023-03-23T01:38:41;11.50;;;8.25;;
54831;SDS011;40730;53.068;6.572;2023-03-23T01:41:08;16.70;;;8.48;;
54831;SDS011;40730;53.068;6.572;2023-03-23T01:43:35;11.93;;;8.23;;
54831;SDS011;40730;53.068;6.572;2023-03-23T01:46:00;11.30;;;7.68;;
54831;SDS011;40730;53.068;6.572;2023-03-23T01:48:27;14.70;;;7.60;;
54831;SDS011;40730;53.068;6.572;2023-03-23T01:51:04;12.30;;;7.15;;
54831;SDS011;40730;53.068;6.572;2023-03-23T01:53:38;11.60;;;7.10;;
54831;SDS011;40730;53.068;6.572;2023-03-23T01:56:27;15.15;;;8.57;;
54831;SDS011;40730;53.068;6.572;2023-03-23T01:59:03;8.25;;;5.75;;
54831;SDS011;40730;53.068;6.572;2023-03-23T02:01:29;12.93;;;6.00;;
54831;SDS011;40730;53.068;6.572;2023-03-23T02:03:55;10.80;;;5.55;;
54831;SDS011;40730;53.068;6.572;2023-03-23T02:06:23;10.45;;;5.85;;
54831;SDS011;40730;53.068;6.572;2023-03-23T02:08:49;10.63;;;4.78;;
54831;SDS011;40730;53.068;6.572;2023-03-23T02:11:16;8.93;;;4.65;;
54831;SDS011;40730;53.068;6.572;2023-03-23T02:13:44;7.03;;;4.82;;
54831;SDS011;40730;53.068;6.572;2023-03-23T02:35:21;4.22;;;3.00;;
54831;SDS011;40730;53.068;6.572;2023-03-23T02:38:00;6.53;;;3.70;;
54831;SDS011;40730;53.068;6.572;2023-03-23T02:40:30;5.07;;;2.95;;
54831;SDS011;40730;53.068;6.572;2023-03-23T02:43:03;7.88;;;2.83;;
54831;SDS011;40730;53.068;6.572;2023-03-23T02:45:34;9.20;;;2.85;;
54831;SDS011;40730;53.068;6.572;2023-03-23T02:48:02;5.35;;;2.90;;
54831;SDS011;40730;53.068;6.572;2023-03-23T02:50:29;8.95;;;3.40;;
54831;SDS011;40730;53.068;6.572;2023-03-23T02:52:57;7.88;;;2.67;;
54831;SDS011;40730;53.068;6.572;2023-03-23T02:55:24;6.00;;;2.13;;
54831;SDS011;40730;53.068;6.572;2023-03-23T02:57:52;5.75;;;2.65;;
54831;SDS011;40730;53.068;6.572;2023-03-23T03:00:18;5.07;;;2.75;;
54831;SDS011;40730;53.068;6.572;2023-03-23T03:02:54;5.57;;;2.45;;
54831;SDS011;40730;53.068;6.572;2023-03-23T03:08:23;6.53;;;2.53;;
54831;SDS011;40730;53.068;6.572;2023-03-23T03:19:26;10.23;;;2.90;;
54831;SDS011;40730;53.068;6.572;2023-03-23T03:21:58;4.10;;;2.17;;
54831;SDS011;40730;53.068;6.572;2023-03-23T03:24:25;4.60;;;1.75;;
54831;SDS011;40730;53.068;6.572;2023-03-23T03:26:54;5.18;;;2.20;;
54831;SDS011;40730;53.068;6.572;2023-03-23T03:29:33;4.75;;;1.75;;
54831;SDS011;40730;53.068;6.572;2023-03-23T03:32:00;10.48;;;2.67;;
54831;SDS011;40730;53.068;6.572;2023-03-23T03:34:30;3.53;;;2.03;;
54831;SDS011;40730;53.068;6.572;2023-03-23T03:36:57;4.60;;;1.90;;
54831;SDS011;40730;53.068;6.572;2023-03-23T03:39:23;5.45;;;2.17;;
54831;SDS011;40730;53.068;6.572;2023-03-23T03:41:50;6.10;;;2.17;;
54831;SDS011;40730;53.068;6.572;2023-03-23T03:44:16;5.63;;;1.55;;
54831;SDS011;40730;53.068;6.572;2023-03-23T03:46:41;3.95;;;3.08;;
54831;SDS011;40730;53.068;6.572;2023-03-23T03:49:07;3.47;;;2.78;;
54831;SDS011;40730;53.068;6.572;2023-03-23T03:51:37;5.15;;;2.70;;
54831;SDS011;40730;53.068;6.572;2023-03-23T03:54:03;9.90;;;3.33;;
54831;SDS011;40730;53.068;6.572;2023-03-23T03:56:29;6.03;;;3.10;;
54831;SDS011;40730;53.068;6.572;2023-03-23T03:58:56;5.88;;;3.17;;
54831;SDS011;40730;53.068;6.572;2023-03-23T04:01:22;6.57;;;3.22;;
54831;SDS011;40730;53.068;6.572;2023-03-23T04:03:48;7.68;;;3.42;;
54831;SDS011;40730;53.068;6.572;2023-03-23T04:06:15;9.90;;;4.43;;
54831;SDS011;40730;53.068;6.572;2023-03-23T04:08:42;7.28;;;3.65;;
54831;SDS011;40730;53.068;6.572;2023-03-23T04:11:08;7.82;;;3.78;;
54831;SDS011;40730;53.068;6.572;2023-03-23T04:13:35;8.75;;;3.90;;
54831;SDS011;40730;53.068;6.572;2023-03-23T04:16:01;9.98;;;3.30;;
54831;SDS011;40730;53.068;6.572;2023-03-23T04:18:27;7.43;;;3.80;;
54831;SDS011;40730;53.068;6.572;2023-03-23T04:20:54;7.70;;;2.30;;
54831;SDS011;40730;53.068;6.572;2023-03-23T04:23:24;11.45;;;3.15;;
54831;SDS011;40730;53.068;6.572;2023-03-23T04:25:51;8.45;;;3.70;;
54831;SDS011;40730;53.068;6.572;2023-03-23T04:28:18;5.70;;;3.10;;
54831;SDS011;40730;53.068;6.572;2023-03-23T04:30:48;9.23;;;3.40;;
54831;SDS011;40730;53.068;6.572;2023-03-23T04:33:18;7.90;;;3.63;;
54831;SDS011;40730;53.068;6.572;2023-03-23T04:35:44;6.80;;;3.45;;
54831;SDS011;40730;53.068;6.572;2023-03-23T04:38:13;3.95;;;3.22;;
54831;SDS011;40730;53.068;6.572;2023-03-23T04:40:40;8.65;;;4.28;;
54831;SDS011;40730;53.068;6.572;2023-03-23T04:43:07;11.80;;;5.10;;
54831;SDS011;40730;53.068;6.572;2023-03-23T04:45:34;10.20;;;3.55;;
54831;SDS011;40730;53.068;6.572;2023-03-23T04:48:02;4.40;;;3.00;;
54831;SDS011;40730;53.068;6.572;2023-03-23T04:50:30;8.93;;;4.10;;
54831;SDS011;40730;53.068;6.572;2023-03-23T04:52:58;6.10;;;3.70;;
54831;SDS011;40730;53.068;6.572;2023-03-23T04:55:28;8.48;;;3.75;;
54831;SDS011;40730;53.068;6.572;2023-03-23T04:57:55;7.85;;;3.08;;
54831;SDS011;40730;53.068;6.572;2023-03-23T05:00:25;4.63;;;2.15;;
54831;SDS011;40730;53.068;6.572;2023-03-23T05:02:51;8.52;;;1.52;;
54831;SDS011;40730;53.068;6.572;2023-03-23T05:05:17;5.70;;;1.73;;
54831;SDS011;40730;53.068;6.572;2023-03-23T05:07:43;6.20;;;1.55;;
54831;SDS011;40730;53.068;6.572;2023-03-23T05:10:10;8.85;;;1.65;;
54831;SDS011;40730;53.068;6.572;2023-03-23T05:12:37;3.83;;;1.50;;
54831;SDS011;40730;53.068;6.572;2023-03-23T05:15:04;6.85;;;1.70;;
54831;SDS011;40730;53.068;6.572;2023-03-23T05:17:31;9.85;;;1.80;;
54831;SDS011;40730;53.068;6.572;2023-03-23T05:19:58;6.93;;;1.30;;
54831;SDS011;40730;53.068;6.572;2023-03-23T05:22:28;7.07;;;1.30;;
54831;SDS011;40730;53.068;6.572;2023-03-23T05:24:53;9.52;;;1.88;;
54831;SDS011;40730;53.068;6.572;2023-03-23T05:27:19;7.72;;;1.38;;
54831;SDS011;40730;53.068;6.572;2023-03-23T05:29:45;8.80;;;1.58;;
54831;SDS011;40730;53.068;6.572;2023-03-23T05:32:13;14.18;;;1.70;;
54831;SDS011;40730;53.068;6.572;2023-03-23T05:34:44;9.57;;;1.00;;
54831;SDS011;40730;53.068;6.572;2023-03-23T05:37:09;6.43;;;1.17;;
54831;SDS011;40730;53.068;6.572;2023-03-23T05:39:36;11.13;;;1.02;;
54831;SDS011;40730;53.068;6.572;2023-03-23T05:42:03;8.90;;;0.63;;
54831;SDS011;40730;53.068;6.572;2023-03-23T05:44:29;6.25;;;0.90;;
54831;SDS011;40730;53.068;6.572;2023-03-23T05:46:55;8.00;;;1.10;;
54831;SDS011;40730;53.068;6.572;2023-03-23T05:49:20;14.98;;;1.20;;
54831;SDS011;40730;53.068;6.572;2023-03-23T05:51:46;6.95;;;0.70;;
54831;SDS011;40730;53.068;6.572;2023-03-23T05:54:13;10.55;;;1.20;;
54831;SDS011;40730;53.068;6.572;2023-03-23T05:56:39;9.45;;;0.85;;
54831;SDS011;40730;53.068;6.572;2023-03-23T05:59:05;11.65;;;1.08;;
54831;SDS011;40730;53.068;6.572;2023-03-23T06:01:32;9.98;;;1.17;;
54831;SDS011;40730;53.068;6.572;2023-03-23T06:03:57;12.70;;;1.08;;
54831;SDS011;40730;53.068;6.572;2023-03-23T06:06:27;10.75;;;1.45;;
54831;SDS011;40730;53.068;6.572;2023-03-23T06:08:54;12.25;;;1.50;;
54831;SDS011;40730;53.068;6.572;2023-03-23T06:11:22;8.50;;;1.35;;
54831;SDS011;40730;53.068;6.572;2023-03-23T06:13:51;14.13;;;1.60;;
54831;SDS011;40730;53.068;6.572;2023-03-23T06:16:17;15.45;;;2.88;;
54831;SDS011;40730;53.068;6.572;2023-03-23T06:18:44;10.02;;;1.60;;
54831;SDS011;40730;53.068;6.572;2023-03-23T06:21:10;15.93;;;2.13;;
54831;SDS011;40730;53.068;6.572;2023-03-23T06:23:36;12.68;;;1.48;;
54831;SDS011;40730;53.068;6.572;2023-03-23T06:26:03;18.23;;;1.70;;
54831;SDS011;40730;53.068;6.572;2023-03-23T06:28:31;15.07;;;1.80;;
54831;SDS011;40730;53.068;6.572;2023-03-23T06:30:59;12.68;;;2.35;;
54831;SDS011;40730;53.068;6.572;2023-03-23T06:33:31;11.95;;;0.93;;
54831;SDS011;40730;53.068;6.572;2023-03-23T06:35:58;12.05;;;1.10;;
54831;SDS011;40730;53.068;6.572;2023-03-23T06:38:25;13.57;;;1.65;;
54831;SDS011;40730;53.068;6.572;2023-03-23T06:40:54;14.32;;;2.00;;
54831;SDS011;40730;53.068;6.572;2023-03-23T06:43:20;13.65;;;1.20;;
54831;SDS011;40730;53.068;6.572;2023-03-23T06:45:46;13.25;;;2.13;;
54831;SDS011;40730;53.068;6.572;2023-03-23T06:48:11;18.33;;;1.42;;
54831;SDS011;40730;53.068;6.572;2023-03-23T06:50:38;16.65;;;2.08;;
54831;SDS011;40730;53.068;6.572;2023-03-23T06:53:06;14.35;;;3.17;;
54831;SDS011;40730;53.068;6.572;2023-03-23T06:55:32;15.85;;;1.80;;
54831;SDS011;40730;53.068;6.572;2023-03-23T06:57:58;17.25;;;2.60;;
54831;SDS011;40730;53.068;6.572;2023-03-23T07:00:26;10.98;;;1.60;;
54831;SDS011;40730;53.068;6.572;2023-03-23T07:02:52;14.73;;;1.23;;
54831;SDS011;40730;53.068;6.572;2023-03-23T07:05:18;15.95;;;1.40;;
54831;SDS011;40730;53.068;6.572;2023-03-23T07:07:44;16.63;;;1.48;;
54831;SDS011;40730;53.068;6.572;2023-03-23T07:10:10;15.30;;;2.28;;
54831;SDS011;40730;53.068;6.572;2023-03-23T07:12:36;11.32;;;1.63;;
54831;SDS011;40730;53.068;6.572;2023-03-23T07:15:02;15.48;;;1.83;;
54831;SDS011;40730;53.068;6.572;2023-03-23T07:17:29;19.05;;;2.67;;
54831;SDS011;40730;53.068;6.572;2023-03-23T07:19:55;22.63;;;2.03;;
54831;SDS011;40730;53.068;6.572;2023-03-23T07:22:21;19.98;;;2.90;;
54831;SDS011;40730;53.068;6.572;2023-03-23T07:24:46;16.40;;;2.28;;
54831;SDS011;40730;53.068;6.572;2023-03-23T07:27:12;21.55;;;2.08;;
54831;SDS011;40730;53.068;6.572;2023-03-23T07:29:38;20.90;;;2.30;;
54831;SDS011;40730;53.068;6.572;2023-03-23T07:32:05;23.77;;;3.65;;
54831;SDS011;40730;53.068;6.572;2023-03-23T07:34:31;21.75;;;2.20;;
54831;SDS011;40730;53.068;6.572;2023-03-23T07:36:58;21.33;;;2.00;;
54831;SDS011;40730;53.068;6.572;2023-03-23T07:39:24;22.60;;;2.63;;
54831;SDS011;40730;53.068;6.572;2023-03-23T07:41:50;21.63;;;2.97;;
54831;SDS011;40730;53.068;6.572;2023-03-23T07:44:16;24.65;;;4.05;;
54831;SDS011;40730;53.068;6.572;2023-03-23T07:46:42;15.98;;;2.58;;
54831;SDS011;40730;53.068;6.572;2023-03-23T07:49:08;20.50;;;2.88;;
54831;SDS011;40730;53.068;6.572;2023-03-23T07:51:35;17.67;;;3.55;;
54831;SDS011;40730;53.068;6.572;2023-03-23T07:54:03;28.48;;;3.00;;
54831;SDS011;40730;53.068;6.572;2023-03-23T07:56:30;18.77;;;2.33;;
54831;SDS011;40730;53.068;6.572;2023-03-23T07:58:56;23.77;;;2.03;;
54831;SDS011;40730;53.068;6.572;2023-03-23T08:01:22;21.20;;;2.33;;
54831;SDS011;40730;53.068;6.572;2023-03-23T08:03:49;15.30;;;1.90;;
54831;SDS011;40730;53.068;6.572;2023-03-23T08:06:15;12.88;;;1.90;;
54831;SDS011;40730;53.068;6.572;2023-03-23T08:08:41;25.50;;;3.00;;
54831;SDS011;40730;53.068;6.572;2023-03-23T08:11:06;17.00;;;2.25;;
54831;SDS011;40730;53.068;6.572;2023-03-23T08:13:32;21.08;;;3.60;;
54831;SDS011;40730;53.068;6.572;2023-03-23T08:16:01;19.10;;;2.67;;
54831;SDS011;40730;53.068;6.572;2023-03-23T08:18:29;19.95;;;2.80;;
54831;SDS011;40730;53.068;6.572;2023-03-23T08:20:56;25.80;;;3.38;;
54831;SDS011;40730;53.068;6.572;2023-03-23T08:23:22;23.40;;;2.25;;
54831;SDS011;40730;53.068;6.572;2023-03-23T08:25:48;23.02;;;2.08;;
54831;SDS011;40730;53.068;6.572;2023-03-23T08:28:14;20.17;;;2.33;;
54831;SDS011;40730;53.068;6.572;2023-03-23T08:30:40;22.40;;;3.22;;
54831;SDS011;40730;53.068;6.572;2023-03-23T08:33:07;19.38;;;2.10;;
54831;SDS011;40730;53.068;6.572;2023-03-23T08:35:35;20.80;;;2.08;;
54831;SDS011;40730;53.068;6.572;2023-03-23T08:38:01;19.48;;;2.33;;
54831;SDS011;40730;53.068;6.572;2023-03-23T08:40:28;21.63;;;2.35;;
54831;SDS011;40730;53.068;6.572;2023-03-23T08:42:54;22.88;;;2.72;;
54831;SDS011;40730;53.068;6.572;2023-03-23T08:45:21;24.38;;;3.70;;
54831;SDS011;40730;53.068;6.572;2023-03-23T08:47:48;26.50;;;3.63;;
54831;SDS011;40730;53.068;6.572;2023-03-23T08:50:17;21.98;;;3.35;;
54831;SDS011;40730;53.068;6.572;2023-03-23T08:52:45;21.05;;;3.28;;
54831;SDS011;40730;53.068;6.572;2023-03-23T08:55:12;20.65;;;2.85;;
54831;SDS011;40730;53.068;6.572;2023-03-23T08:57:38;17.35;;;3.17;;
54831;SDS011;40730;53.068;6.572;2023-03-23T09:00:06;23.13;;;3.40;;
54831;SDS011;40730;53.068;6.572;2023-03-23T09:02:41;32.10;;;3.70;;
54831;SDS011;40730;53.068;6.572;2023-03-23T09:05:07;24.80;;;2.95;;
54831;SDS011;40730;53.068;6.572;2023-03-23T09:07:36;21.73;;;2.90;;
54831;SDS011;40730;53.068;6.572;2023-03-23T09:10:07;24.00;;;3.08;;
54831;SDS011;40730;53.068;6.572;2023-03-23T09:12:34;19.40;;;2.97;;
54831;SDS011;40730;53.068;6.572;2023-03-23T09:15:01;19.92;;;3.25;;
54831;SDS011;40730;53.068;6.572;2023-03-23T09:17:33;24.73;;;3.50;;
54831;SDS011;40730;53.068;6.572;2023-03-23T09:20:00;21.25;;;2.90;;
54831;SDS011;40730;53.068;6.572;2023-03-23T09:22:26;20.80;;;3.08;;
54831;SDS011;40730;53.068;6.572;2023-03-23T09:24:52;23.52;;;3.67;;
54831;SDS011;40730;53.068;6.572;2023-03-23T09:27:18;17.80;;;2.30;;
54831;SDS011;40730;53.068;6.572;2023-03-23T09:29:44;19.17;;;3.00;;
54831;SDS011;40730;53.068;6.572;2023-03-23T09:32:10;22.02;;;2.85;;
54831;SDS011;40730;53.068;6.572;2023-03-23T09:34:38;18.95;;;2.60;;
54831;SDS011;40730;53.068;6.572;2023-03-23T09:37:04;28.02;;;3.00;;
54831;SDS011;40730;53.068;6.572;2023-03-23T09:39:31;17.58;;;2.58;;
54831;SDS011;40730;53.068;6.572;2023-03-23T09:50:08;27.95;;;3.10;;
54831;SDS011;40730;53.068;6.572;2023-03-23T09:55:32;16.35;;;2.70;;
54831;SDS011;40730;53.068;6.572;2023-03-23T09:58:16;24.60;;;3.05;;
54831;SDS011;40730;53.068;6.572;2023-03-23T10:00:46;22.27;;;3.60;;
54831;SDS011;40730;53.068;6.572;2023-03-23T10:03:40;22.05;;;3.25;;
54831;SDS011;40730;53.068;6.572;2023-03-23T10:06:08;20.00;;;2.08;;
54831;SDS011;40730;53.068;6.572;2023-03-23T10:08:38;21.17;;;2.97;;
54831;SDS011;40730;53.068;6.572;2023-03-23T10:11:33;21.38;;;3.40;;
54831;SDS011;40730;53.068;6.572;2023-03-23T10:16:42;17.55;;;2.50;;
54831;SDS011;40730;53.068;6.572;2023-03-23T10:19:20;17.63;;;2.53;;
54831;SDS011;40730;53.068;6.572;2023-03-23T10:22:04;20.80;;;3.97;;
54831;SDS011;40730;53.068;6.572;2023-03-23T10:24:45;15.40;;;3.05;;
54831;SDS011;40730;53.068;6.572;2023-03-23T10:27:32;20.25;;;2.80;;
54831;SDS011;40730;53.068;6.572;2023-03-23T10:33:03;17.38;;;2.15;;
54831;SDS011;40730;53.068;6.572;2023-03-23T10:38:28;13.73;;;2.58;;
54831;SDS011;40730;53.068;6.572;2023-03-23T10:41:02;20.92;;;3.20;;
54831;SDS011;40730;53.068;6.572;2023-03-23T10:43:34;17.30;;;2.08;;
54831;SDS011;40730;53.068;6.572;2023-03-23T10:46:02;11.32;;;1.60;;
54831;SDS011;40730;53.068;6.572;2023-03-23T10:48:37;13.40;;;2.03;;
54831;SDS011;40730;53.068;6.572;2023-03-23T10:51:04;19.50;;;2.70;;
54831;SDS011;40730;53.068;6.572;2023-03-23T10:53:56;12.20;;;1.67;;
54831;SDS011;40730;53.068;6.572;2023-03-23T10:58:53;16.67;;;1.58;;
54831;SDS011;40730;53.068;6.572;2023-03-23T11:01:20;17.15;;;2.13;;
54831;SDS011;40730;53.068;6.572;2023-03-23T11:03:57;11.75;;;1.75;;
54831;SDS011;40730;53.068;6.572;2023-03-23T11:06:32;9.05;;;1.38;;
54831;SDS011;40730;53.068;6.572;2023-03-23T11:09:08;9.00;;;1.20;;
54831;SDS011;40730;53.068;6.572;2023-03-23T11:11:37;11.98;;;1.10;;
54831;SDS011;40730;53.068;6.572;2023-03-23T11:14:14;8.63;;;1.20;;
54831;SDS011;40730;53.068;6.572;2023-03-23T11:16:49;9.45;;;1.08;;
54831;SDS011;40730;53.068;6.572;2023-03-23T11:19:27;10.65;;;1.15;;
54831;SDS011;40730;53.068;6.572;2023-03-23T11:22:05;11.98;;;1.10;;
54831;SDS011;40730;53.068;6.572;2023-03-23T11:24:45;15.30;;;1.63;;
54831;SDS011;40730;53.068;6.572;2023-03-23T11:27:16;11.23;;;1.20;;
54831;SDS011;40730;53.068;6.572;2023-03-23T11:29:49;11.07;;;1.35;;
54831;SDS011;40730;53.068;6.572;2023-03-23T11:32:18;10.02;;;1.52;;
54831;SDS011;40730;53.068;6.572;2023-03-23T11:34:52;12.65;;;1.95;;
54831;SDS011;40730;53.068;6.572;2023-03-23T11:42:36;14.45;;;1.63;;
54831;SDS011;40730;53.068;6.572;2023-03-23T11:45:13;13.40;;;1.50;;
54831;SDS011;40730;53.068;6.572;2023-03-23T11:50:46;10.00;;;1.52;;
54831;SDS011;40730;53.068;6.572;2023-03-23T11:53:29;9.63;;;1.20;;
54831;SDS011;40730;53.068;6.572;2023-03-23T11:58:53;10.20;;;0.98;;
54831;SDS011;40730;53.068;6.572;2023-03-23T12:04:19;11.88;;;1.55;;
54831;SDS011;40730;53.068;6.572;2023-03-23T12:06:55;8.75;;;0.95;;
54831;SDS011;40730;53.068;6.572;2023-03-23T12:12:23;11.20;;;1.58;;
54831;SDS011;40730;53.068;6.572;2023-03-23T12:21:05;9.57;;;1.33;;
54831;SDS011;40730;53.068;6.572;2023-03-23T12:23:46;7.57;;;0.85;;
54831;SDS011;40730;53.068;6.572;2023-03-23T12:26:28;8.98;;;1.27;;
54831;SDS011;40730;53.068;6.572;2023-03-23T12:34:46;7.25;;;0.80;;
54831;SDS011;40730;53.068;6.572;2023-03-23T12:40:10;6.70;;;1.15;;
54831;SDS011;40730;53.068;6.572;2023-03-23T12:48:16;11.38;;;1.27;;
54831;SDS011;40730;53.068;6.572;2023-03-23T12:53:55;8.60;;;1.15;;
54831;SDS011;40730;53.068;6.572;2023-03-23T12:59:19;11.52;;;1.08;;
54831;SDS011;40730;53.068;6.572;2023-03-23T13:01:52;8.07;;;1.80;;
54831;SDS011;40730;53.068;6.572;2023-03-23T13:04:29;9.63;;;1.08;;
54831;SDS011;40730;53.068;6.572;2023-03-23T13:07:01;15.73;;;1.33;;
54831;SDS011;40730;53.068;6.572;2023-03-23T13:09:42;8.80;;;1.05;;
54831;SDS011;40730;53.068;6.572;2023-03-23T13:12:13;13.45;;;0.90;;
54831;SDS011;40730;53.068;6.572;2023-03-23T13:14:50;13.63;;;1.98;;
54831;SDS011;40730;53.068;6.572;2023-03-23T13:23:43;16.13;;;1.90;;
54831;SDS011;40730;53.068;6.572;2023-03-23T13:25:50;16.38;;;1.23;;
54831;SDS011;40730;53.068;6.572;2023-03-23T13:28:30;12.40;;;1.38;;
54831;SDS011;40730;53.068;6.572;2023-03-23T13:30:59;13.23;;;1.42;;
54831;SDS011;40730;53.068;6.572;2023-03-23T13:33:31;11.32;;;1.58;;
54831;SDS011;40730;53.068;6.572;2023-03-23T13:36:25;12.75;;;1.00;;
54831;SDS011;40730;53.068;6.572;2023-03-23T13:39:02;14.63;;;2.00;;
54831;SDS011;40730;53.068;6.572;2023-03-23T13:41:32;10.85;;;1.27;;
54831;SDS011;40730;53.068;6.572;2023-03-23T13:44:39;10.23;;;1.13;;
54831;SDS011;40730;53.068;6.572;2023-03-23T13:47:36;11.48;;;1.58;;
54831;SDS011;40730;53.068;6.572;2023-03-23T13:50:08;13.65;;;2.08;;
54831;SDS011;40730;53.068;6.572;2023-03-23T13:55:31;12.73;;;1.50;;
54831;SDS011;40730;53.068;6.572;2023-03-23T14:03:01;8.88;;;1.17;;
54831;SDS011;40730;53.068;6.572;2023-03-23T14:05:43;8.88;;;1.38;;
54831;SDS011;40730;53.068;6.572;2023-03-23T14:08:23;12.57;;;1.38;;
54831;SDS011;40730;53.068;6.572;2023-03-23T14:11:02;14.80;;;3.00;;
54831;SDS011;40730;53.068;6.572;2023-03-23T14:16:16;12.25;;;1.20;;
54831;SDS011;40730;53.068;6.572;2023-03-23T14:18:42;13.80;;;1.95;;
54831;SDS011;40730;53.068;6.572;2023-03-23T14:21:33;8.32;;;1.15;;
54831;SDS011;40730;53.068;6.572;2023-03-23T14:24:00;7.57;;;0.75;;
54831;SDS011;40730;53.068;6.572;2023-03-23T14:26:28;8.13;;;0.80;;
54831;SDS011;40730;53.068;6.572;2023-03-23T14:28:53;10.85;;;1.15;;
54831;SDS011;40730;53.068;6.572;2023-03-23T14:31:20;9.35;;;1.02;;
54831;SDS011;40730;53.068;6.572;2023-03-23T14:33:49;10.38;;;1.42;;
54831;SDS011;40730;53.068;6.572;2023-03-23T14:38:55;10.77;;;0.60;;
54831;SDS011;40730;53.068;6.572;2023-03-23T14:41:36;8.73;;;1.10;;
54831;SDS011;40730;53.068;6.572;2023-03-23T14:44:03;7.53;;;1.08;;
54831;SDS011;40730;53.068;6.572;2023-03-23T14:46:31;10.85;;;0.70;;
54831;SDS011;40730;53.068;6.572;2023-03-23T14:49:06;12.40;;;1.15;;
54831;SDS011;40730;53.068;6.572;2023-03-23T14:51:32;6.38;;;0.50;;
54831;SDS011;40730;53.068;6.572;2023-03-23T14:53:58;6.03;;;0.70;;
54831;SDS011;40730;53.068;6.572;2023-03-23T14:56:31;7.05;;;0.98;;
54831;SDS011;40730;53.068;6.572;2023-03-23T14:59:03;6.47;;;1.17;;
54831;SDS011;40730;53.068;6.572;2023-03-23T15:01:31;8.85;;;0.68;;
54831;SDS011;40730;53.068;6.572;2023-03-23T15:04:02;8.65;;;0.85;;
54831;SDS011;40730;53.068;6.572;2023-03-23T15:06:36;10.77;;;0.90;;
54831;SDS011;40730;53.068;6.572;2023-03-23T15:09:07;12.52;;;0.95;;
54831;SDS011;40730;53.068;6.572;2023-03-23T15:11:38;5.07;;;1.00;;
54831;SDS011;40730;53.068;6.572;2023-03-23T15:14:15;8.68;;;0.70;;
54831;SDS011;40730;53.068;6.572;2023-03-23T15:16:49;5.15;;;0.57;;
54831;SDS011;40730;53.068;6.572;2023-03-23T15:19:28;14.18;;;1.00;;
54831;SDS011;40730;53.068;6.572;2023-03-23T15:22:21;5.57;;;0.68;;
54831;SDS011;40730;53.068;6.572;2023-03-23T15:24:47;8.05;;;1.92;;
54831;SDS011;40730;53.068;6.572;2023-03-23T15:27:28;7.57;;;0.47;;
54831;SDS011;40730;53.068;6.572;2023-03-23T15:30:45;9.85;;;0.85;;
54831;SDS011;40730;53.068;6.572;2023-03-23T15:32:46;10.95;;;1.50;;
54831;SDS011;40730;53.068;6.572;2023-03-23T15:35:14;10.93;;;0.85;;
54831;SDS011;40730;53.068;6.572;2023-03-23T15:37:42;7.20;;;1.00;;
54831;SDS011;40730;53.068;6.572;2023-03-23T15:40:23;8.10;;;1.45;;
54831;SDS011;40730;53.068;6.572;2023-03-23T15:42:50;9.02;;;1.13;;
54831;SDS011;40730;53.068;6.572;2023-03-23T15:46:01;6.80;;;0.90;;
54831;SDS011;40730;53.068;6.572;2023-03-23T15:48:31;9.18;;;1.13;;
54831;SDS011;40730;53.068;6.572;2023-03-23T15:50:59;7.30;;;1.02;;
54831;SDS011;40730;53.068;6.572;2023-03-23T15:53:35;9.90;;;1.08;;
54831;SDS011;40730;53.068;6.572;2023-03-23T15:56:03;10.50;;;1.38;;
54831;SDS011;40730;53.068;6.572;2023-03-23T15:58:30;7.05;;;1.00;;
54831;SDS011;40730;53.068;6.572;2023-03-23T16:00:57;11.55;;;1.20;;
54831;SDS011;40730;53.068;6.572;2023-03-23T16:03:25;10.18;;;0.80;;
54831;SDS011;40730;53.068;6.572;2023-03-23T16:05:55;8.80;;;0.73;;
54831;SDS011;40730;53.068;6.572;2023-03-23T16:08:24;15.23;;;1.95;;
54831;SDS011;40730;53.068;6.572;2023-03-23T16:10:50;11.73;;;1.45;;
54831;SDS011;40730;53.068;6.572;2023-03-23T16:13:16;11.88;;;1.08;;
54831;SDS011;40730;53.068;6.572;2023-03-23T16:15:42;11.10;;;1.35;;
54831;SDS011;40730;53.068;6.572;2023-03-23T16:18:12;13.43;;;1.60;;
54831;SDS011;40730;53.068;6.572;2023-03-23T16:20:45;12.13;;;1.52;;
54831;SDS011;40730;53.068;6.572;2023-03-23T16:23:12;14.05;;;1.35;;
54831;SDS011;40730;53.068;6.572;2023-03-23T16:25:37;12.93;;;1.90;;
54831;SDS011;40730;53.068;6.572;2023-03-23T16:28:03;14.00;;;1.20;;
54831;SDS011;40730;53.068;6.572;2023-03-23T16:30:32;8.77;;;1.30;;
54831;SDS011;40730;53.068;6.572;2023-03-23T16:32:59;10.90;;;1.23;;
54831;SDS011;40730;53.068;6.572;2023-03-23T16:35:25;14.27;;;1.80;;
54831;SDS011;40730;53.068;6.572;2023-03-23T16:37:52;13.93;;;1.83;;
54831;SDS011;40730;53.068;6.572;2023-03-23T16:40:19;13.98;;;1.13;;
54831;SDS011;40730;53.068;6.572;2023-03-23T16:42:46;12.02;;;1.65;;
54831;SDS011;40730;53.068;6.572;2023-03-23T16:45:12;9.55;;;1.20;;
54831;SDS011;40730;53.068;6.572;2023-03-23T16:47:38;11.82;;;1.17;;
54831;SDS011;40730;53.068;6.572;2023-03-23T16:50:06;17.10;;;1.83;;